Aviosuperficie "Cascina Valentino"

IT-0047 · 皮埃蒙特, 意大利

罗盘
风向 的 风向 060° Aviosuperficie "Cascina Valentino" 17/35
风: 1 kt, 1 beaufort


1 kt
改变
0 ft 1.000 2.000 3.000 4.000 5.000
Cloud Cloud
FEW 200
Cloud Cloud Cloud Cloud Cloud Cloud Cloud Cloud
OVC 500
METAR LIMZ 012120Z AUTO 06001KT 6000 FEW002/// OVC005/// 08/08 Q1007

METAR Aviosuperficie "Cascina Valentino" - IT-0047

Aviosuperficie "Cascina Valentino"是,意大利中的小机场。 该机场位于纬度44,69547和经度7,40238。 该机场有一条跑道: 17/35. 这个机场没有ICAO代码,我们使用IT-0047作为参考。 机场在Milano FIR中。

该航空气象观测是针对Cuneo International Airport在2024年3月1日 22:20, 当地时间进行的。

机场观察

风向为060°,速度为1 kt。

可见度为6 km。

有几云在200 ft的高度 和 乌云密布在500 ft的高度。 破损或更高的上限为500 ft。

温度和风寒是8 °C。 露点为8 °C,相对湿度为100%。 海平面上的气压为1007 hPa (QNH)。

白天

今天,太阳从07:06升起,在18:18降落。 这适用于Aviosuperficie "Cascina Valentino",世界夏令时可能有所不同。 当地时间与世界标准时间之间的时差为+1 小时。 当前,没有夏令时有效。

公司介绍

我们没有关于这个机场的公司信息。

体会

到Vliegles.nl去找飞行课程,跳伞和其他飞行体验。 浏览页面,了解Aviosuperficie "Cascina Valentino"附近所有可用的活动。 你也可以使用搜索功能来寻找你所在地附近的特定飞行课程、跳伞或其他飞行体验。

跑道

Id 标题 侧风 逆风 侧风 %
17/35 170°-350° 94 %

逆风成分最大的方向会被突出显示,并用于横风计算。 这并不一定意味着这个方向在使用。

乌云

200 ft FEW 几云
500 ft OVC 乌云密布

温度 & 天气

温度 8 °C
露点 8 °C
相对湿度 100%
Kp-index 0 (0-9)

白天

日出
07:05 (8:23)
中午
12:41
日落
18:17

小工具

你想在你的网站上有一个关于Aviosuperficie "Cascina Valentino"的当前航空天气(METAR)的小部件吗?

显示HTML代码
?>